Time;durP1;ratioP1;P1;durP2;ratioP2;P2;SDS_P1;SDS_P2;PMS_P1;PMS_P2;Temp;Humidity;BMP_temperature;BMP_pressure;BME280_temperature;BME280_humidity;BME280_pressure;Samples;Min_cycle;Max_cycle;Signal;HPM_P1;HPM_P2
2021/09/03 00:00:49;;;;;;;20.70;16.53;;;;;;;;;;6271948;23;20467;-51
2021/09/03 00:03:16;;;;;;;19.23;11.67;;;;;;;;;;6272681;22;20412;-52
2021/09/03 00:06:02;;;;;;;22.60;11.83;;;;;;;;;;6272874;23;20412;-53
2021/09/03 00:08:29;;;;;;;16.10;11.03;;;;;;;;;;6272627;23;20408;-52
2021/09/03 00:10:56;;;;;;;14.10;11.10;;;;;;;;;;6272887;22;20416;-51
2021/09/03 00:13:29;;;;;;;18.37;12.47;;;;;;;;;;6272829;22;20401;-54
2021/09/03 00:15:57;;;;;;;13.47;10.60;;;;;;;;;;6272446;23;20439;-52
2021/09/03 00:18:24;;;;;;;35.07;29.03;;;;;;;;;;6272339;22;20403;-48
2021/09/03 00:21:02;;;;;;;14.53;11.30;;;;;;;;;;6245969;23;20432;-54
2021/09/03 00:23:29;;;;;;;13.43;10.30;;;;;;;;;;6272912;23;20397;-54
2021/09/03 00:25:57;;;;;;;13.77;10.00;;;;;;;;;;6272286;23;20401;-51
2021/09/03 00:28:44;;;;;;;15.57;10.60;;;;;;;;;;6272821;23;20409;-51
2021/09/03 00:31:12;;;;;;;14.90;10.80;;;;;;;;;;6272635;22;20409;-49
2021/09/03 00:33:40;;;;;;;14.40;10.67;;;;;;;;;;6272020;22;20396;-50
2021/09/03 00:39:11;;;;;;;14.97;12.03;;;;;;;;;;6274077;22;20582;-53
2021/09/03 00:41:38;;;;;;;16.90;11.97;;;;;;;;;;6274254;22;20397;-52
2021/09/03 00:44:22;;;;;;;49.93;37.20;;;;;;;;;;6274216;22;20427;-52
2021/09/03 00:46:51;;;;;;;19.57;14.10;;;;;;;;;;6273523;23;20438;-54
2021/09/03 00:49:18;;;;;;;17.90;12.87;;;;;;;;;;6274463;23;20397;-53
2021/09/03 00:52:12;;;;;;;15.97;12.70;;;;;;;;;;6274044;22;20409;-56
2021/09/03 00:54:40;;;;;;;14.80;10.73;;;;;;;;;;6273759;23;20433;-50
2021/09/03 00:57:07;;;;;;;14.67;11.43;;;;;;;;;;6273893;23;20476;-51
2021/09/03 00:59:37;;;;;;;17.40;10.50;;;;;;;;;;6273750;23;20488;-52
2021/09/03 01:02:06;;;;;;;15.10;10.47;;;;;;;;;;6273604;23;20413;-55
2021/09/03 01:04:33;;;;;;;13.50;11.20;;;;;;;;;;6274247;22;20417;-55
2021/09/03 01:07:22;;;;;;;13.80;10.30;;;;;;;;;;6274341;23;20417;-47
2021/09/03 01:09:50;;;;;;;18.17;10.70;;;;;;;;;;6273709;23;20401;-49
2021/09/03 01:12:17;;;;;;;14.00;10.60;;;;;;;;;;6273990;23;20405;-53
2021/09/03 01:14:50;;;;;;;15.17;10.23;;;;;;;;;;6274190;23;20415;-55
2021/09/03 01:17:19;;;;;;;13.53;10.27;;;;;;;;;;6274032;22;20408;-54
2021/09/03 01:19:46;;;;;;;13.40;11.30;;;;;;;;;;6274345;23;20461;-55
2021/09/03 01:22:19;;;;;;;14.70;10.27;;;;;;;;;;6274098;23;20424;-56
2021/09/03 01:24:46;;;;;;;14.90;11.17;;;;;;;;;;6273901;22;20544;-53
2021/09/03 01:27:14;;;;;;;13.57;9.60;;;;;;;;;;6274069;23;20397;-55
2021/09/03 01:30:08;;;;;;;16.00;10.50;;;;;;;;;;6273614;22;20400;-48
2021/09/03 01:32:36;;;;;;;16.70;10.90;;;;;;;;;;6273613;22;20416;-55
2021/09/03 01:35:03;;;;;;;14.37;9.80;;;;;;;;;;6273642;23;20389;-53
2021/09/03 01:37:32;;;;;;;12.73;10.40;;;;;;;;;;6273796;23;20599;-50
2021/09/03 01:39:59;;;;;;;17.60;11.40;;;;;;;;;;6273067;22;20433;-53
2021/09/03 01:42:26;;;;;;;13.30;10.70;;;;;;;;;;6273592;23;20405;-52
2021/09/03 01:47:57;;;;;;;15.37;10.60;;;;;;;;;;6273166;22;20411;-58
2021/09/03 01:50:25;;;;;;;13.70;10.60;;;;;;;;;;6273527;23;20393;-50
2021/09/03 01:52:53;;;;;;;13.37;10.70;;;;;;;;;;6273641;22;20427;-55
2021/09/03 01:55:21;;;;;;;15.87;11.70;;;;;;;;;;6272828;23;20412;-49
2021/09/03 01:57:53;;;;;;;15.00;10.30;;;;;;;;;;6273532;23;20373;-55
2021/09/03 02:00:21;;;;;;;14.23;11.00;;;;;;;;;;6273230;22;20508;-49
2021/09/03 02:02:49;;;;;;;13.40;10.30;;;;;;;;;;6273537;23;20401;-50
2021/09/03 02:05:17;;;;;;;13.90;9.90;;;;;;;;;;6273164;23;20417;-47
2021/09/03 02:07:45;;;;;;;18.60;10.23;;;;;;;;;;6272936;22;20451;-55
2021/09/03 02:10:14;;;;;;;10.70;8.60;;;;;;;;;;6273062;23;20403;-49
2021/09/03 02:15:44;;;;;;;13.00;9.10;;;;;;;;;;6272556;23;20451;-54
2021/09/03 02:18:12;;;;;;;17.03;9.33;;;;;;;;;;6272893;23;20443;-51
2021/09/03 02:20:51;;;;;;;11.57;9.00;;;;;;;;;;6273361;22;20432;-47
2021/09/03 02:23:19;;;;;;;11.00;9.07;;;;;;;;;;6273264;23;20429;-54
2021/09/03 02:25:47;;;;;;;12.47;8.77;;;;;;;;;;6273222;23;20409;-57
2021/09/03 02:28:20;;;;;;;15.80;9.20;;;;;;;;;;6272688;23;20427;-54
2021/09/03 02:30:48;;;;;;;13.07;9.27;;;;;;;;;;6272718;22;20468;-51
2021/09/03 02:33:15;;;;;;;13.97;8.80;;;;;;;;;;6273316;22;20423;-56
2021/09/03 02:38:47;;;;;;;12.50;9.00;;;;;;;;;;6272244;23;20435;-50
2021/09/03 02:41:16;;;;;;;17.27;9.77;;;;;;;;;;6272837;23;20472;-51
2021/09/03 02:46:47;;;;;;;12.23;9.80;;;;;;;;;;6273286;22;20435;-49
2021/09/03 02:49:15;;;;;;;14.47;9.47;;;;;;;;;;6273137;23;20705;-52
2021/09/03 02:51:53;;;;;;;16.87;10.77;;;;;;;;;;6272651;22;20425;-53
2021/09/03 02:54:20;;;;;;;11.67;9.37;;;;;;;;;;6273259;22;20428;-52
2021/09/03 02:56:49;;;;;;;15.43;9.70;;;;;;;;;;6272839;22;20412;-50
2021/09/03 03:02:22;;;;;;;11.90;8.50;;;;;;;;;;6272623;23;20448;-52
2021/09/03 03:04:49;;;;;;;12.10;9.37;;;;;;;;;;6272973;22;20439;-59
2021/09/03 03:07:17;;;;;;;12.30;10.07;;;;;;;;;;6272722;23;20420;-52
2021/09/03 03:09:47;;;;;;;13.93;8.73;;;;;;;;;;6273194;22;20411;-50
2021/09/03 03:12:19;;;;;;;13.20;9.30;;;;;;;;;;6273018;22;20393;-51
2021/09/03 03:14:46;;;;;;;11.00;9.80;;;;;;;;;;6272830;22;20424;-50
2021/09/03 03:17:13;;;;;;;15.80;9.80;;;;;;;;;;6272833;23;20427;-50
2021/09/03 03:19:58;;;;;;;12.20;9.87;;;;;;;;;;6272490;22;20389;-52
2021/09/03 03:22:28;;;;;;;10.77;9.47;;;;;;;;;;6272525;23;20417;-54
2021/09/03 03:24:57;;;;;;;15.93;10.30;;;;;;;;;;6272756;23;20420;-52
2021/09/03 03:27:26;;;;;;;11.10;9.27;;;;;;;;;;6272337;23;20420;-51
2021/09/03 03:29:54;;;;;;;13.57;10.07;;;;;;;;;;6272367;23;20377;-53
2021/09/03 03:32:34;;;;;;;11.70;9.17;;;;;;;;;;6272604;22;20423;-54
2021/09/03 03:35:01;;;;;;;19.50;9.77;;;;;;;;;;6272203;23;20412;-50
2021/09/03 03:37:30;;;;;;;11.40;7.67;;;;;;;;;;6272272;23;20409;-54
2021/09/03 03:43:02;;;;;;;13.93;9.70;;;;;;;;;;6272539;23;20446;-50
2021/09/03 03:45:29;;;;;;;13.30;10.00;;;;;;;;;;6272135;23;20412;-52
2021/09/03 03:48:07;;;;;;;13.43;9.00;;;;;;;;;;6271544;23;20417;-53
2021/09/03 03:50:35;;;;;;;9.47;8.47;;;;;;;;;;6271990;22;20400;-58
2021/09/03 03:53:03;;;;;;;10.57;8.10;;;;;;;;;;6272463;22;20377;-56
2021/09/03 03:55:47;;;;;;;11.80;9.50;;;;;;;;;;6272023;22;20489;-57
2021/09/03 03:58:18;;;;;;;16.93;11.43;;;;;;;;;;6272178;23;20404;-54
2021/09/03 04:00:45;;;;;;;12.40;9.30;;;;;;;;;;6272400;23;20467;-53
2021/09/03 04:03:13;;;;;;;14.90;9.77;;;;;;;;;;6271959;23;20426;-54
2021/09/03 04:05:41;;;;;;;14.33;9.43;;;;;;;;;;6272424;22;20405;-56
2021/09/03 04:08:35;;;;;;;14.50;10.07;;;;;;;;;;6272060;23;20419;-55
2021/09/03 04:11:05;;;;;;;16.27;7.67;;;;;;;;;;6273689;22;20400;-51
2021/09/03 04:13:34;;;;;;;16.40;10.60;;;;;;;;;;6274461;23;20446;-49
2021/09/03 04:16:35;;;;;;;16.03;10.37;;;;;;;;;;6274484;22;20420;-52
2021/09/03 04:21:50;;;;;;;13.70;8.73;;;;;;;;;;6273729;22;20444;-53
2021/09/03 04:24:17;;;;;;;12.83;10.70;;;;;;;;;;6273669;22;20593;-55
2021/09/03 04:26:45;;;;;;;18.27;10.23;;;;;;;;;;6273947;23;20405;-57
2021/09/03 04:29:42;;;;;;;13.97;9.87;;;;;;;;;;6273154;22;20381;-53
2021/09/03 04:32:13;;;;;;;16.00;10.17;;;;;;;;;;6274226;22;20409;-53
2021/09/03 04:34:45;;;;;;;13.47;9.10;;;;;;;;;;6273710;22;20377;-52
2021/09/03 04:37:16;;;;;;;13.90;9.57;;;;;;;;;;6273875;22;20424;-54
2021/09/03 04:39:43;;;;;;;18.87;10.10;;;;;;;;;;6273769;23;20470;-53
2021/09/03 04:42:10;;;;;;;12.57;8.77;;;;;;;;;;6273270;23;20436;-50
2021/09/03 04:44:45;;;;;;;15.47;10.03;;;;;;;;;;6274160;22;20476;-55
2021/09/03 04:47:14;;;;;;;14.37;10.03;;;;;;;;;;6273461;23;20433;-53
2021/09/03 04:50:01;;;;;;;12.87;9.23;;;;;;;;;;6273397;22;20397;-51
2021/09/03 04:52:29;;;;;;;13.20;8.70;;;;;;;;;;6273128;22;20446;-53
2021/09/03 04:54:57;;;;;;;13.23;8.77;;;;;;;;;;6272709;23;20411;-53
2021/09/03 04:57:33;;;;;;;14.87;9.40;;;;;;;;;;6273420;23;20428;-52
2021/09/03 05:00:00;;;;;;;17.03;9.50;;;;;;;;;;6272902;23;20412;-55
2021/09/03 05:02:37;;;;;;;15.67;9.50;;;;;;;;;;6273052;23;20405;-56
2021/09/03 05:05:09;;;;;;;14.27;9.77;;;;;;;;;;6272968;23;20445;-57
2021/09/03 05:07:38;;;;;;;13.47;8.73;;;;;;;;;;6272974;23;20377;-56
2021/09/03 05:10:08;;;;;;;12.03;8.50;;;;;;;;;;6272628;23;20443;-57
2021/09/03 05:12:53;;;;;;;16.20;9.50;;;;;;;;;;6272666;23;20401;-50
2021/09/03 05:15:26;;;;;;;11.23;8.63;;;;;;;;;;6272571;22;20428;-56
2021/09/03 05:21:18;;;;;;;10.83;8.33;;;;;;;;;;6262292;23;20436;-57
2021/09/03 05:23:46;;;;;;;11.80;8.87;;;;;;;;;;6262077;23;20460;-54
2021/09/03 05:26:14;;;;;;;15.77;9.50;;;;;;;;;;6272217;23;20460;-51
2021/09/03 05:29:19;;;;;;;14.63;9.60;;;;;;;;;;6272743;22;20429;-56
2021/09/03 05:31:51;;;;;;;12.83;9.10;;;;;;;;;;6271330;22;20483;-53
2021/09/03 05:34:19;;;;;;;15.90;8.93;;;;;;;;;;6271821;23;20551;-54
2021/09/03 05:36:55;;;;;;;13.60;9.57;;;;;;;;;;6272603;23;20452;-51
2021/09/03 05:39:25;;;;;;;14.07;10.57;;;;;;;;;;6271021;23;20428;-56
2021/09/03 05:41:52;;;;;;;13.27;9.03;;;;;;;;;;6271621;23;20445;-57
2021/09/03 05:44:21;;;;;;;19.20;9.37;;;;;;;;;;6271398;23;20492;-55
2021/09/03 05:46:48;;;;;;;12.97;9.70;;;;;;;;;;6270939;22;20456;-55
2021/09/03 05:49:16;;;;;;;17.37;10.43;;;;;;;;;;6245060;23;20417;-56
2021/09/03 05:51:46;;;;;;;16.03;9.90;;;;;;;;;;6271778;22;20421;-56
2021/09/03 05:54:16;;;;;;;16.93;9.93;;;;;;;;;;6271461;23;20416;-55
2021/09/03 05:57:05;;;;;;;17.63;9.57;;;;;;;;;;6271880;22;20423;-57
2021/09/03 05:59:35;;;;;;;19.90;8.87;;;;;;;;;;6271171;23;20417;-55
2021/09/03 06:02:03;;;;;;;21.73;10.67;;;;;;;;;;6244783;23;20429;-55
2021/09/03 06:05:03;;;;;;;18.83;14.03;;;;;;;;;;6271612;23;20397;-51
2021/09/03 06:07:33;;;;;;;13.53;9.00;;;;;;;;;;6269902;23;20439;-54
2021/09/03 06:10:01;;;;;;;15.30;10.67;;;;;;;;;;6271570;22;20455;-52
2021/09/03 06:12:48;;;;;;;19.53;9.60;;;;;;;;;;6272289;23;20421;-53
2021/09/03 06:15:17;;;;;;;16.93;9.70;;;;;;;;;;6271218;22;20432;-55
2021/09/03 06:17:47;;;;;;;22.80;9.13;;;;;;;;;;6271903;22;20432;-57
2021/09/03 06:20:15;;;;;;;15.53;9.27;;;;;;;;;;6271428;23;20433;-48
2021/09/03 06:22:42;;;;;;;18.40;9.97;;;;;;;;;;6271611;23;20442;-56
2021/09/03 06:25:11;;;;;;;13.33;8.40;;;;;;;;;;6271414;22;20397;-58
2021/09/03 06:27:41;;;;;;;14.50;9.20;;;;;;;;;;6271789;23;20381;-54
2021/09/03 06:30:10;;;;;;;16.20;10.80;;;;;;;;;;6271593;22;20435;-59
2021/09/03 06:32:40;;;;;;;15.37;10.60;;;;;;;;;;6270697;22;20405;-55
2021/09/03 06:35:23;;;;;;;12.87;9.77;;;;;;;;;;6271071;23;20441;-51
2021/09/03 06:37:51;;;;;;;13.00;10.47;;;;;;;;;;6218967;23;20474;-56
2021/09/03 06:40:19;;;;;;;13.47;9.33;;;;;;;;;;6238079;23;20488;-50
2021/09/03 06:42:50;;;;;;;14.03;9.70;;;;;;;;;;6240188;23;20425;-54
2021/09/03 06:45:17;;;;;;;15.10;11.07;;;;;;;;;;6241098;23;20390;-53
2021/09/03 06:47:50;;;;;;;12.97;9.17;;;;;;;;;;6241188;23;20401;-57
2021/09/03 06:50:29;;;;;;;13.27;9.80;;;;;;;;;;6240414;23;20436;-54
2021/09/03 06:52:56;;;;;;;15.90;10.80;;;;;;;;;;6241285;23;20393;-54
2021/09/03 06:55:24;;;;;;;20.30;9.97;;;;;;;;;;6240533;23;20397;-56
2021/09/03 06:57:51;;;;;;;19.57;9.83;;;;;;;;;;6241020;23;20414;-58
2021/09/03 07:00:23;;;;;;;12.10;9.77;;;;;;;;;;6240629;23;20650;-60
2021/09/03 07:02:54;;;;;;;12.47;9.40;;;;;;;;;;6241162;23;20540;-56
2021/09/03 07:05:25;;;;;;;13.40;8.87;;;;;;;;;;6240725;23;20436;-48
2021/09/03 07:07:53;;;;;;;16.00;9.40;;;;;;;;;;6240674;23;20397;-54
2021/09/03 07:10:22;;;;;;;30.07;9.90;;;;;;;;;;6241030;23;20420;-53
2021/09/03 07:12:49;;;;;;;12.33;9.13;;;;;;;;;;6239655;23;20412;-51
2021/09/03 07:15:26;;;;;;;15.70;9.90;;;;;;;;;;6240252;23;20383;-54
2021/09/03 07:17:55;;;;;;;18.20;9.90;;;;;;;;;;6240385;23;20440;-52
2021/09/03 07:20:22;;;;;;;11.37;9.80;;;;;;;;;;6240616;23;20401;-53
2021/09/03 07:22:51;;;;;;;15.23;10.20;;;;;;;;;;6240525;23;20453;-52
2021/09/03 07:25:19;;;;;;;12.07;8.60;;;;;;;;;;6241011;23;20505;-56
2021/09/03 07:27:47;;;;;;;11.37;8.53;;;;;;;;;;6239465;23;20405;-55
2021/09/03 07:30:19;;;;;;;14.83;8.73;;;;;;;;;;6239948;23;20445;-52
2021/09/03 07:32:47;;;;;;;13.47;9.23;;;;;;;;;;6240575;23;20428;-52
2021/09/03 07:35:18;;;;;;;10.77;8.20;;;;;;;;;;6241179;23;20485;-49
2021/09/03 07:37:45;;;;;;;10.40;8.03;;;;;;;;;;6271178;23;20381;-49
2021/09/03 07:40:13;;;;;;;26.10;10.33;;;;;;;;;;6270885;23;20405;-50
2021/09/03 07:42:41;;;;;;;11.20;8.30;;;;;;;;;;6270907;22;20436;-54
2021/09/03 07:45:10;;;;;;;12.50;10.17;;;;;;;;;;6272991;23;20412;-53
2021/09/03 07:47:38;;;;;;;10.00;8.00;;;;;;;;;;6273186;23;20434;-54
2021/09/03 07:50:06;;;;;;;13.10;9.90;;;;;;;;;;6272757;23;20412;-55
2021/09/03 07:52:35;;;;;;;13.30;9.30;;;;;;;;;;6272980;23;20404;-53
2021/09/03 07:55:09;;;;;;;10.10;8.33;;;;;;;;;;6272309;23;20432;-49
2021/09/03 07:57:37;;;;;;;11.90;9.30;;;;;;;;;;6272876;23;20431;-54
2021/09/03 08:00:07;;;;;;;15.13;8.80;;;;;;;;;;6273380;23;20413;-51
2021/09/03 08:02:41;;;;;;;11.23;8.30;;;;;;;;;;6272774;22;20479;-53
2021/09/03 08:05:10;;;;;;;10.97;8.00;;;;;;;;;;6272264;22;20421;-49
2021/09/03 08:07:41;;;;;;;12.00;7.83;;;;;;;;;;6273430;22;20389;-57
2021/09/03 08:10:11;;;;;;;13.27;8.70;;;;;;;;;;6272505;23;20619;-55
2021/09/03 08:12:38;;;;;;;11.50;8.50;;;;;;;;;;6272783;22;20484;-50
2021/09/03 08:15:13;;;;;;;12.63;8.67;;;;;;;;;;6272909;23;20423;-51
2021/09/03 08:20:46;;;;;;;10.93;8.43;;;;;;;;;;6252498;23;20436;-56
2021/09/03 08:23:15;;;;;;;9.30;7.60;;;;;;;;;;6241822;23;20449;-58
2021/09/03 08:25:58;;;;;;;11.33;8.37;;;;;;;;;;6241918;23;20444;-54
2021/09/03 08:28:25;;;;;;;11.73;8.30;;;;;;;;;;6241978;23;20445;-54
2021/09/03 08:33:54;;;;;;;10.87;8.43;;;;;;;;;;6241618;23;20470;-55
2021/09/03 08:36:21;;;;;;;8.70;7.10;;;;;;;;;;6241925;23;20590;-52
2021/09/03 08:38:50;;;;;;;10.60;7.53;;;;;;;;;;6242011;23;20433;-50
2021/09/03 08:41:18;;;;;;;12.53;8.40;;;;;;;;;;6242250;22;20440;-50
2021/09/03 08:43:46;;;;;;;10.37;8.20;;;;;;;;;;6242380;23;20500;-54
2021/09/03 08:49:18;;;;;;;9.90;7.77;;;;;;;;;;6241404;23;20849;-49
2021/09/03 08:51:45;;;;;;;11.63;7.30;;;;;;;;;;6241970;23;20414;-52
2021/09/03 08:54:28;;;;;;;8.83;7.10;;;;;;;;;;6241603;22;20433;-52
2021/09/03 08:56:56;;;;;;;12.63;7.50;;;;;;;;;;6241461;23;20410;-52
2021/09/03 08:59:23;;;;;;;10.80;8.77;;;;;;;;;;6242395;22;20410;-57
2021/09/03 09:05:00;;;;;;;10.87;8.03;;;;;;;;;;6240974;23;20440;-56
2021/09/03 09:07:29;;;;;;;15.50;8.90;;;;;;;;;;6241684;23;20401;-52
2021/09/03 09:10:15;;;;;;;12.97;8.67;;;;;;;;;;6241963;23;20448;-55
2021/09/03 09:12:47;;;;;;;9.40;7.00;;;;;;;;;;6239785;22;20552;-52
2021/09/03 09:15:15;;;;;;;12.00;8.20;;;;;;;;;;6240789;22;20406;-52
2021/09/03 09:17:43;;;;;;;9.53;7.50;;;;;;;;;;6241974;22;20453;-56
2021/09/03 09:20:17;;;;;;;14.90;8.73;;;;;;;;;;6240642;22;20671;-54
2021/09/03 09:22:54;;;;;;;7.70;6.37;;;;;;;;;;6240167;22;20445;-53
2021/09/03 09:25:25;;;;;;;10.13;6.67;;;;;;;;;;6240632;22;20437;-49
2021/09/03 09:28:19;;;;;;;9.80;7.27;;;;;;;;;;6241407;23;20418;-47
2021/09/03 09:30:47;;;;;;;12.03;7.50;;;;;;;;;;6155930;22;20534;-48
2021/09/03 09:33:16;;;;;;;12.63;8.40;;;;;;;;;;6241054;22;20382;-52
2021/09/03 09:38:47;;;;;;;9.20;6.63;;;;;;;;;;6241189;22;20447;-55
2021/09/03 09:41:32;;;;;;;14.40;7.40;;;;;;;;;;6241076;23;20394;-54
2021/09/03 09:44:20;;;;;;;12.37;7.80;;;;;;;;;;6241451;23;20382;-52
2021/09/03 09:47:05;;;;;;;10.53;7.23;;;;;;;;;;6241477;23;20386;-54
2021/09/03 09:49:54;;;;;;;12.33;8.70;;;;;;;;;;6241810;22;20385;-48
2021/09/03 09:52:40;;;;;;;9.60;7.87;;;;;;;;;;6240722;23;20432;-51
2021/09/03 09:58:15;;;;;;;11.50;7.80;;;;;;;;;;6241038;22;20368;-56
2021/09/03 10:00:46;;;;;;;9.40;6.27;;;;;;;;;;6240956;23;20405;-55
2021/09/03 10:03:18;;;;;;;10.27;7.33;;;;;;;;;;6240928;22;20464;-56
2021/09/03 10:05:46;;;;;;;8.97;6.03;;;;;;;;;;6240334;23;20479;-51
2021/09/03 10:08:14;;;;;;;9.10;6.60;;;;;;;;;;6240584;23;20413;-58
2021/09/03 10:11:07;;;;;;;14.90;7.27;;;;;;;;;;6240819;22;20414;-51
2021/09/03 10:13:34;;;;;;;13.57;6.60;;;;;;;;;;6240656;23;20439;-57
2021/09/03 10:16:03;;;;;;;9.60;7.20;;;;;;;;;;6240808;23;20417;-53
2021/09/03 10:21:41;;;;;;;10.53;7.13;;;;;;;;;;6240986;23;20379;-52
2021/09/03 10:24:10;;;;;;;11.77;6.37;;;;;;;;;;6240857;22;20413;-54
2021/09/03 10:29:43;;;;;;;15.23;6.57;;;;;;;;;;6240705;23;20545;-51
2021/09/03 10:32:21;;;;;;;8.30;6.17;;;;;;;;;;6240623;22;20489;-52
2021/09/03 10:34:51;;;;;;;10.40;6.83;;;;;;;;;;6240747;22;20412;-52
2021/09/03 10:37:29;;;;;;;11.40;8.77;;;;;;;;;;6239646;23;20780;-56
2021/09/03 10:40:20;;;;;;;15.77;10.40;;;;;;;;;;6240074;23;20378;-53
2021/09/03 10:43:02;;;;;;;11.93;7.50;;;;;;;;;;6238756;23;20441;-47
2021/09/03 10:45:47;;;;;;;11.40;7.80;;;;;;;;;;6239829;22;20409;-51
2021/09/03 10:48:18;;;;;;;8.10;6.80;;;;;;;;;;6239659;23;20453;-57
2021/09/03 10:51:01;;;;;;;7.90;6.13;;;;;;;;;;6240056;22;20465;-55
2021/09/03 10:53:31;;;;;;;8.17;5.97;;;;;;;;;;6240255;23;20433;-56
2021/09/03 10:56:03;;;;;;;8.23;6.27;;;;;;;;;;6239609;22;20517;-53
2021/09/03 10:58:43;;;;;;;7.70;6.13;;;;;;;;;;6240418;22;20410;-54
2021/09/03 11:01:43;;;;;;;8.33;6.50;;;;;;;;;;6240126;23;20489;-53
2021/09/03 11:04:15;;;;;;;9.23;6.87;;;;;;;;;;6240265;23;20445;-54
2021/09/03 11:06:50;;;;;;;8.03;4.90;;;;;;;;;;6240270;23;20390;-57
2021/09/03 11:09:30;;;;;;;9.17;6.03;;;;;;;;;;6240958;22;20508;-54
2021/09/03 11:11:59;;;;;;;11.47;9.83;;;;;;;;;;6239073;23;20446;-54
2021/09/03 11:14:39;;;;;;;9.83;6.60;;;;;;;;;;6239878;23;20413;-53
2021/09/03 11:17:12;;;;;;;6.30;5.00;;;;;;;;;;6240648;23;20406;-55
2021/09/03 11:19:44;;;;;;;10.43;6.20;;;;;;;;;;6238936;22;20513;-53
2021/09/03 11:22:14;;;;;;;21.10;7.00;;;;;;;;;;6240495;22;20441;-56
2021/09/03 11:24:45;;;;;;;15.13;7.20;;;;;;;;;;6239059;22;20406;-56
2021/09/03 11:27:13;;;;;;;10.73;6.60;;;;;;;;;;6239419;22;20457;-53
2021/09/03 11:29:49;;;;;;;7.43;5.60;;;;;;;;;;6239689;22;20434;-57
2021/09/03 11:32:21;;;;;;;9.50;5.00;;;;;;;;;;6239277;22;20410;-53
2021/09/03 11:38:24;;;;;;;6.90;4.80;;;;;;;;;;5112921;28;20516;-54
2021/09/03 11:40:52;;;;;;;12.67;6.90;;;;;;;;;;5092768;28;20452;-51
2021/09/03 11:43:23;;;;;;;8.17;5.87;;;;;;;;;;5073084;28;20486;-54
2021/09/03 11:45:51;;;;;;;10.97;7.27;;;;;;;;;;5090447;28;20582;-55
2021/09/03 11:48:22;;;;;;;7.40;5.87;;;;;;;;;;5092753;28;20445;-54
2021/09/03 11:51:32;;;;;;;7.87;6.23;;;;;;;;;;5087933;28;20438;-54
2021/09/03 12:00:10;;;;;;;7.67;5.80;;;;;;;;;;5072515;28;20420;-56
2021/09/03 12:02:37;;;;;;;11.83;6.00;;;;;;;;;;5071524;28;20591;-56
2021/09/03 12:05:27;;;;;;;10.00;6.10;;;;;;;;;;5071462;28;20540;-56
2021/09/03 12:08:04;;;;;;;6.23;4.77;;;;;;;;;;5073539;28;20441;-52
2021/09/03 12:10:39;;;;;;;6.70;5.30;;;;;;;;;;5073053;28;20459;-54
2021/09/03 12:13:34;;;;;;;6.60;5.40;;;;;;;;;;5073173;28;20444;-55
2021/09/03 12:16:13;;;;;;;8.43;5.83;;;;;;;;;;5080287;28;20572;-54
2021/09/03 12:21:46;;;;;;;7.30;5.27;;;;;;;;;;5093446;28;20440;-56
2021/09/03 12:24:16;;;;;;;6.00;5.00;;;;;;;;;;5092739;28;20894;-56
2021/09/03 12:26:57;;;;;;;6.57;5.07;;;;;;;;;;5079437;28;20459;-56
2021/09/03 12:29:30;;;;;;;5.77;4.30;;;;;;;;;;5073170;28;20469;-56
2021/09/03 12:32:04;;;;;;;6.47;4.90;;;;;;;;;;5073001;28;20495;-56
2021/09/03 12:34:45;;;;;;;8.00;5.60;;;;;;;;;;5072892;28;20437;-52
2021/09/03 12:37:19;;;;;;;7.80;6.20;;;;;;;;;;5082939;28;20472;-58
2021/09/03 12:39:56;;;;;;;7.60;6.37;;;;;;;;;;5093342;28;20494;-57
2021/09/03 12:45:03;;;;;;;7.67;5.50;;;;;;;;;;5090251;28;20530;-53
2021/09/03 12:47:31;;;;;;;10.33;5.70;;;;;;;;;;5088313;28;20440;-58
2021/09/03 12:50:11;;;;;;;9.83;5.57;;;;;;;;;;5074534;28;20458;-49
2021/09/03 12:52:54;;;;;;;8.67;5.30;;;;;;;;;;5058960;28;20449;-54
2021/09/03 12:58:04;;;;;;;6.93;5.13;;;;;;;;;;5041007;28;20469;-52
2021/09/03 13:00:45;;;;;;;8.93;5.13;;;;;;;;;;5057888;28;20450;-54
2021/09/03 13:06:31;;;;;;;7.60;5.40;;;;;;;;;;5062647;28;20495;-53
2021/09/03 13:09:17;;;;;;;6.00;4.90;;;;;;;;;;5069539;28;20493;-52
2021/09/03 13:11:51;;;;;;;8.80;5.20;;;;;;;;;;5070886;28;20477;-55
2021/09/03 13:14:25;;;;;;;5.80;4.60;;;;;;;;;;5077232;28;20461;-53
2021/09/03 13:20:03;;;;;;;7.50;5.30;;;;;;;;;;5057940;28;20464;-51
2021/09/03 13:22:30;;;;;;;9.13;5.37;;;;;;;;;;5056906;28;20477;-57
2021/09/03 13:27:44;;;;;;;6.87;5.00;;;;;;;;;;5053966;28;20430;-56
2021/09/03 13:30:21;;;;;;;5.20;4.00;;;;;;;;;;5057104;28;20453;-54
2021/09/03 13:32:49;;;;;;;6.00;4.73;;;;;;;;;;5040710;28;20450;-55
2021/09/03 13:35:19;;;;;;;8.23;4.73;;;;;;;;;;5057917;28;20426;-57
2021/09/03 13:37:53;;;;;;;7.37;4.37;;;;;;;;;;5057021;28;20484;-53
2021/09/03 13:40:32;;;;;;;5.63;3.97;;;;;;;;;;5056791;28;20458;-57
2021/09/03 13:43:03;;;;;;;7.20;5.27;;;;;;;;;;5056445;28;20448;-56
2021/09/03 13:45:37;;;;;;;6.77;4.60;;;;;;;;;;5056827;28;20492;-50
2021/09/03 13:54:09;;;;;;;7.90;5.70;;;;;;;;;;5045672;28;20465;-54
2021/09/03 13:56:49;;;;;;;5.80;4.30;;;;;;;;;;5056991;28;20476;-52
2021/09/03 14:02:43;;;;;;;7.83;5.40;;;;;;;;;;5063661;28;20494;-53
2021/09/03 14:05:14;;;;;;;7.23;5.40;;;;;;;;;;5076167;28;20475;-58
2021/09/03 14:08:01;;;;;;;10.30;4.23;;;;;;;;;;5064231;28;20446;-51
2021/09/03 14:10:33;;;;;;;9.73;4.80;;;;;;;;;;5060786;28;20468;-54
2021/09/03 14:13:06;;;;;;;8.03;4.70;;;;;;;;;;5056077;28;20466;-53
2021/09/03 14:15:43;;;;;;;6.80;4.63;;;;;;;;;;5057270;28;20450;-56
2021/09/03 14:24:09;;;;;;;6.10;4.73;;;;;;;;;;5063558;28;20507;-51
2021/09/03 14:26:39;;;;;;;5.90;4.67;;;;;;;;;;5056993;28;20455;-54
2021/09/03 14:29:18;;;;;;;7.57;5.00;;;;;;;;;;5057852;28;20414;-57
2021/09/03 14:31:45;;;;;;;8.30;5.60;;;;;;;;;;5077048;28;20456;-51
2021/09/03 14:34:15;;;;;;;7.40;5.37;;;;;;;;;;5076167;28;20448;-58
2021/09/03 14:37:07;;;;;;;6.53;4.80;;;;;;;;;;5067184;28;20473;-50
2021/09/03 14:39:36;;;;;;;6.10;4.63;;;;;;;;;;5062623;28;20493;-51
2021/09/03 14:42:12;;;;;;;5.83;4.40;;;;;;;;;;5060559;28;20442;-53
2021/09/03 14:44:40;;;;;;;7.60;5.00;;;;;;;;;;5070653;28;20477;-51
2021/09/03 14:47:10;;;;;;;6.87;5.27;;;;;;;;;;5060273;28;20501;-54
2021/09/03 14:49:39;;;;;;;11.00;9.20;;;;;;;;;;5067636;28;20471;-51
2021/09/03 14:52:23;;;;;;;7.37;5.60;;;;;;;;;;5083817;28;20464;-58
2021/09/03 14:54:53;;;;;;;6.23;4.20;;;;;;;;;;5096750;28;20444;-53
2021/09/03 14:57:22;;;;;;;6.67;5.20;;;;;;;;;;5097200;28;20487;-52
2021/09/03 14:59:49;;;;;;;8.23;5.37;;;;;;;;;;5083142;28;20472;-57
2021/09/03 15:02:18;;;;;;;6.60;5.30;;;;;;;;;;5076872;28;20513;-49
2021/09/03 15:04:46;;;;;;;5.93;4.00;;;;;;;;;;5076759;28;20448;-55
2021/09/03 15:07:47;;;;;;;6.30;5.13;;;;;;;;;;5070451;28;20442;-49
2021/09/03 15:10:15;;;;;;;6.80;4.90;;;;;;;;;;5060723;28;20457;-55
2021/09/03 15:12:44;;;;;;;5.73;4.23;;;;;;;;;;5061519;28;20450;-52
2021/09/03 15:15:14;;;;;;;5.57;4.23;;;;;;;;;;5056475;28;20462;-53
2021/09/03 15:17:43;;;;;;;8.80;5.10;;;;;;;;;;5061642;28;20528;-50
2021/09/03 15:20:22;;;;;;;7.30;5.13;;;;;;;;;;5064995;28;20462;-51
2021/09/03 15:22:51;;;;;;;7.00;4.03;;;;;;;;;;5074629;28;20477;-55
2021/09/03 15:25:31;;;;;;;6.40;4.60;;;;;;;;;;5060033;28;20457;-54
2021/09/03 15:28:02;;;;;;;7.60;5.40;;;;;;;;;;5069201;28;20477;-54
2021/09/03 15:30:39;;;;;;;7.60;5.53;;;;;;;;;;5062738;28;20509;-51
2021/09/03 15:33:07;;;;;;;6.47;4.77;;;;;;;;;;5064109;28;20481;-50
2021/09/03 15:35:41;;;;;;;8.67;4.70;;;;;;;;;;5074787;28;20488;-54
2021/09/03 15:38:16;;;;;;;7.67;4.87;;;;;;;;;;5072996;28;20491;-49
2021/09/03 15:41:03;;;;;;;5.53;4.00;;;;;;;;;;5055455;28;20950;-58
2021/09/03 15:43:37;;;;;;;6.97;4.53;;;;;;;;;;5058399;28;20521;-53
2021/09/03 15:46:08;;;;;;;10.10;5.33;;;;;;;;;;5062234;28;20469;-57
2021/09/03 15:48:37;;;;;;;5.80;4.70;;;;;;;;;;5073154;28;20445;-54
2021/09/03 15:51:09;;;;;;;8.20;5.20;;;;;;;;;;5069696;28;20480;-53
2021/09/03 15:53:38;;;;;;;7.00;4.37;;;;;;;;;;5075328;28;20441;-52
2021/09/03 15:56:09;;;;;;;6.33;5.23;;;;;;;;;;5089061;28;20437;-57
2021/09/03 15:58:38;;;;;;;8.57;5.97;;;;;;;;;;5055957;28;20572;-51
2021/09/03 16:01:07;;;;;;;7.37;5.63;;;;;;;;;;5054119;28;20500;-50
2021/09/03 16:03:35;;;;;;;7.23;5.30;;;;;;;;;;5056762;28;20492;-49
2021/09/03 16:06:13;;;;;;;8.17;5.83;;;;;;;;;;5082214;28;20555;-53
2021/09/03 16:08:42;;;;;;;7.97;5.50;;;;;;;;;;5079448;28;20584;-53
2021/09/03 16:11:10;;;;;;;10.27;7.90;;;;;;;;;;5059689;28;20445;-54
2021/09/03 16:14:07;;;;;;;7.77;6.20;;;;;;;;;;5089059;28;20432;-51
2021/09/03 16:16:37;;;;;;;7.87;5.63;;;;;;;;;;5096096;28;20471;-51
2021/09/03 16:19:06;;;;;;;7.90;4.80;;;;;;;;;;5077385;28;20488;-54
2021/09/03 16:21:49;;;;;;;6.80;4.77;;;;;;;;;;5074902;28;20459;-51
2021/09/03 16:24:21;;;;;;;7.80;5.30;;;;;;;;;;5075940;28;20480;-51
2021/09/03 16:26:50;;;;;;;6.90;5.40;;;;;;;;;;5078046;28;20441;-51
2021/09/03 16:29:21;;;;;;;6.17;4.80;;;;;;;;;;5080666;28;20501;-49
2021/09/03 16:31:52;;;;;;;6.77;4.43;;;;;;;;;;5098322;28;20523;-51
2021/09/03 16:34:25;;;;;;;5.63;4.37;;;;;;;;;;5099187;28;20505;-52
2021/09/03 16:36:53;;;;;;;13.23;6.00;;;;;;;;;;5071617;28;20430;-54